createdAt,value
2018-09-13T00:01:19.749Z,7.63
2018-09-13T00:03:50.968Z,7.40
2018-09-13T00:06:22.007Z,7.70
2018-09-13T00:08:53.270Z,7.87
2018-09-13T00:11:24.172Z,7.37
2018-09-13T00:13:54.951Z,7.53
2018-09-13T00:16:25.945Z,7.87
2018-09-13T00:18:56.816Z,7.00
2018-09-13T00:21:27.598Z,7.63
2018-09-13T00:23:58.386Z,6.77
2018-09-13T00:26:29.205Z,7.30
2018-09-13T00:29:00.853Z,8.07
2018-09-13T00:31:31.878Z,7.30
2018-09-13T00:34:02.958Z,7.93
2018-09-13T00:36:33.945Z,7.70
2018-09-13T00:39:06.252Z,8.00
2018-09-13T00:41:38.596Z,8.03
2018-09-13T00:44:09.545Z,7.73
2018-09-13T00:46:40.619Z,8.30
2018-09-13T00:49:11.551Z,7.23
2018-09-13T00:51:42.534Z,7.57
2018-09-13T00:54:13.603Z,7.20
2018-09-13T00:56:44.611Z,7.60
2018-09-13T00:59:15.574Z,7.87
2018-09-13T01:01:46.444Z,7.40
2018-09-13T01:04:17.326Z,7.50
2018-09-13T01:06:48.339Z,6.93
2018-09-13T01:09:19.174Z,7.47
2018-09-13T01:11:49.933Z,7.47
2018-09-13T01:14:20.709Z,7.23
2018-09-13T01:16:51.597Z,8.00
2018-09-13T01:19:22.515Z,7.87
2018-09-13T01:21:53.299Z,7.80
2018-09-13T01:24:24.169Z,8.20
2018-09-13T01:26:55.067Z,7.67
2018-09-13T01:29:26.038Z,8.03
2018-09-13T01:31:57.288Z,8.70
2018-09-13T01:34:28.164Z,8.20
2018-09-13T01:36:59.299Z,8.13
2018-09-13T01:39:30.048Z,7.53
2018-09-13T01:42:00.858Z,7.70
2018-09-13T01:44:32.042Z,7.80
2018-09-13T01:47:02.904Z,8.60
2018-09-13T01:49:33.685Z,8.50
2018-09-13T01:52:04.499Z,8.17
2018-09-13T01:54:35.810Z,8.13
2018-09-13T01:57:06.887Z,8.93
2018-09-13T01:59:37.696Z,8.27
2018-09-13T02:02:08.466Z,8.30
2018-09-13T02:04:39.444Z,8.57
2018-09-13T02:07:10.223Z,8.47
2018-09-13T02:09:41.047Z,8.97
2018-09-13T02:12:11.849Z,7.73
2018-09-13T02:14:42.594Z,8.23
2018-09-13T02:17:13.495Z,8.13
2018-09-13T02:19:44.286Z,8.07
2018-09-13T02:22:15.247Z,8.57
2018-09-13T02:24:45.993Z,8.10
2018-09-13T02:27:16.769Z,8.37
2018-09-13T02:29:47.563Z,8.97
2018-09-13T02:32:18.278Z,8.60
2018-09-13T02:34:49.360Z,9.10
2018-09-13T02:37:20.199Z,8.73
2018-09-13T02:39:51.000Z,8.63
2018-09-13T02:42:22.018Z,8.77
2018-09-13T02:44:54.365Z,8.50
2018-09-13T02:47:25.133Z,8.40
2018-09-13T02:49:56.318Z,9.00
2018-09-13T02:52:27.053Z,8.10
2018-09-13T02:54:57.767Z,8.53
2018-09-13T02:57:28.599Z,8.30
2018-09-13T02:59:59.572Z,9.13
2018-09-13T03:02:30.647Z,9.17
2018-09-13T03:05:01.594Z,9.40
2018-09-13T03:07:32.377Z,9.30
2018-09-13T03:10:03.270Z,9.20
2018-09-13T03:12:34.007Z,9.27
2018-09-13T03:15:05.128Z,9.23
2018-09-13T03:17:36.158Z,8.83
2018-09-13T03:20:07.424Z,8.80
2018-09-13T03:22:38.452Z,10.00
2018-09-13T03:25:09.639Z,9.57
2018-09-13T03:27:40.864Z,9.17
2018-09-13T03:30:12.395Z,10.27
2018-09-13T03:32:43.575Z,9.93
2018-09-13T03:35:14.662Z,8.87
2018-09-13T03:37:45.818Z,9.33
2018-09-13T03:40:16.769Z,9.83
2018-09-13T03:42:47.819Z,9.70
2018-09-13T03:45:18.759Z,9.20
2018-09-13T03:47:49.721Z,9.53
2018-09-13T03:50:20.568Z,10.00
2018-09-13T03:52:51.399Z,9.10
2018-09-13T03:55:22.260Z,9.50
2018-09-13T03:57:53.261Z,10.03
2018-09-13T04:00:24.271Z,9.17
2018-09-13T04:02:55.276Z,9.80
2018-09-13T04:05:26.190Z,9.83
2018-09-13T04:07:57.138Z,9.60
2018-09-13T04:10:28.090Z,9.43
2018-09-13T04:12:59.124Z,9.37
2018-09-13T04:15:30.211Z,10.13
2018-09-13T04:18:01.111Z,9.53
2018-09-13T04:20:32.140Z,9.43
2018-09-13T04:23:03.373Z,10.00
2018-09-13T04:25:34.453Z,9.23
2018-09-13T04:28:05.605Z,11.00
2018-09-13T04:30:36.560Z,9.53
2018-09-13T04:33:07.813Z,9.13
2018-09-13T04:35:39.681Z,10.17
2018-09-13T04:38:10.477Z,10.90
2018-09-13T04:40:41.423Z,10.57
2018-09-13T04:43:12.674Z,10.60
2018-09-13T04:45:43.814Z,10.03
2018-09-13T04:48:14.927Z,10.27
2018-09-13T04:50:46.372Z,10.63
2018-09-13T04:53:17.270Z,9.97
2018-09-13T04:55:48.292Z,10.10
2018-09-13T04:58:19.282Z,9.97
2018-09-13T05:00:50.298Z,10.27
2018-09-13T05:03:21.129Z,9.13
2018-09-13T05:05:52.025Z,10.80
2018-09-13T05:08:22.944Z,10.50
2018-09-13T05:10:54.027Z,9.83
2018-09-13T05:13:24.947Z,9.43
2018-09-13T05:15:56.255Z,9.33
2018-09-13T05:18:27.638Z,8.50
2018-09-13T05:20:58.686Z,9.23
2018-09-13T05:23:30.176Z,10.33
2018-09-13T05:26:01.211Z,10.30
2018-09-13T05:28:32.318Z,8.10
2018-09-13T05:31:03.433Z,8.63
2018-09-13T05:33:34.296Z,10.27
2018-09-13T05:36:05.314Z,9.20
2018-09-13T05:38:36.481Z,9.37
2018-09-13T05:41:07.765Z,9.30
2018-09-13T05:43:38.689Z,8.07
2018-09-13T05:46:09.864Z,12.63
2018-09-13T05:48:40.881Z,12.83
2018-09-13T05:51:12.012Z,11.70
2018-09-13T05:53:43.045Z,11.03
2018-09-13T05:56:14.427Z,9.60
2018-09-13T05:58:45.515Z,9.23
2018-09-13T06:01:16.624Z,8.50
2018-09-13T06:03:47.570Z,9.40
2018-09-13T06:06:18.585Z,9.13
2018-09-13T06:08:49.721Z,8.70
2018-09-13T06:11:20.784Z,9.10
2018-09-13T06:13:51.901Z,8.90
2018-09-13T06:16:23.124Z,10.37
2018-09-13T06:18:54.249Z,9.27
2018-09-13T06:21:25.183Z,10.07
2018-09-13T06:23:56.292Z,10.00
2018-09-13T06:26:28.257Z,10.20
2018-09-13T06:28:59.310Z,9.30
2018-09-13T06:31:30.309Z,8.93
2018-09-13T06:34:01.660Z,9.63
2018-09-13T06:36:32.705Z,9.40
2018-09-13T06:39:04.112Z,9.80
2018-09-13T06:41:35.094Z,9.90
2018-09-13T06:44:06.145Z,9.80
2018-09-13T06:46:37.110Z,9.80
2018-09-13T06:49:08.499Z,10.17
2018-09-13T06:51:39.403Z,10.60
2018-09-13T06:54:10.594Z,9.60
2018-09-13T06:56:41.655Z,11.60
2018-09-13T06:59:12.663Z,10.87
2018-09-13T07:01:43.617Z,10.37
2018-09-13T07:04:14.679Z,8.93
2018-09-13T07:06:45.772Z,9.07
2018-09-13T07:09:16.776Z,9.27
2018-09-13T07:11:47.789Z,8.53
2018-09-13T07:14:18.746Z,9.13
2018-09-13T07:16:49.821Z,9.07
2018-09-13T07:19:20.936Z,8.67
2018-09-13T07:21:51.915Z,8.73
2018-09-13T07:24:22.827Z,9.10
2018-09-13T07:26:54.170Z,8.83
2018-09-13T07:29:25.137Z,8.43
2018-09-13T07:31:56.319Z,8.57
2018-09-13T07:34:27.215Z,9.13
2018-09-13T07:36:58.254Z,8.40
2018-09-13T07:39:29.329Z,9.50
2018-09-13T07:42:00.437Z,9.10
2018-09-13T07:44:31.443Z,8.47
2018-09-13T07:47:02.454Z,8.90
2018-09-13T07:49:33.661Z,8.43
2018-09-13T07:52:04.838Z,8.67
2018-09-13T07:54:36.014Z,8.57
2018-09-13T07:57:06.970Z,9.97
2018-09-13T07:59:38.410Z,9.67
2018-09-13T08:02:09.423Z,9.67
2018-09-13T08:04:40.423Z,8.97
2018-09-13T08:07:11.411Z,9.60
2018-09-13T08:09:42.370Z,9.43
2018-09-13T08:12:13.572Z,9.30
2018-09-13T08:14:44.477Z,8.77
2018-09-13T08:17:15.649Z,8.40
2018-09-13T08:19:46.822Z,8.40
2018-09-13T08:22:17.772Z,7.53
2018-09-13T08:24:49.042Z,7.60
2018-09-13T08:27:20.300Z,7.90
2018-09-13T08:29:51.576Z,7.93
2018-09-13T08:32:22.849Z,7.80
2018-09-13T08:34:54.091Z,8.07
2018-09-13T08:37:25.244Z,7.40
2018-09-13T08:39:56.472Z,7.70
2018-09-13T08:42:27.474Z,7.73
2018-09-13T08:44:58.674Z,8.27
2018-09-13T08:47:29.875Z,6.90
2018-09-13T08:50:01.301Z,6.93
2018-09-13T08:52:32.527Z,7.20
2018-09-13T08:55:03.655Z,6.63
2018-09-13T08:57:34.552Z,6.00
2018-09-13T09:00:07.204Z,6.20
2018-09-13T09:02:38.336Z,6.57
2018-09-13T09:05:09.829Z,7.73
2018-09-13T09:07:41.320Z,6.00
2018-09-13T09:10:12.312Z,7.30
2018-09-13T09:12:43.531Z,6.33
2018-09-13T09:15:14.617Z,6.70
2018-09-13T09:17:45.714Z,7.40
2018-09-13T09:20:17.484Z,6.17
2018-09-13T09:22:48.613Z,7.27
2018-09-13T09:25:19.655Z,7.47
2018-09-13T09:27:50.718Z,7.40
2018-09-13T09:30:22.340Z,7.00
2018-09-13T09:32:53.690Z,7.20
2018-09-13T09:35:25.044Z,6.80
2018-09-13T09:37:56.118Z,6.87
2018-09-13T09:40:27.025Z,6.20
2018-09-13T09:42:58.749Z,5.93
2018-09-13T09:45:29.969Z,5.40
2018-09-13T09:48:00.992Z,6.73
2018-09-13T09:50:32.137Z,6.13
2018-09-13T09:53:03.236Z,6.50
2018-09-13T09:55:34.457Z,5.97
2018-09-13T09:58:05.792Z,6.20
2018-09-13T10:00:41.668Z,6.00
2018-09-13T10:03:12.633Z,5.90
2018-09-13T10:05:43.549Z,5.87
2018-09-13T10:08:14.596Z,7.10
2018-09-13T10:10:45.598Z,6.17
2018-09-13T10:13:16.480Z,6.87
2018-09-13T10:15:52.518Z,6.73
2018-09-13T10:18:28.680Z,6.17
2018-09-13T10:21:04.843Z,5.90
2018-09-13T10:23:40.905Z,5.77
2018-09-13T10:26:16.920Z,5.90
2018-09-13T10:28:53.157Z,6.27
2018-09-13T10:31:28.931Z,5.97
2018-09-13T10:34:05.080Z,6.73
2018-09-13T10:36:41.265Z,6.13
2018-09-13T10:39:17.253Z,6.00
2018-09-13T10:41:53.385Z,5.83
2018-09-13T10:44:29.542Z,5.27
2018-09-13T10:47:05.655Z,5.63
2018-09-13T10:49:41.661Z,5.60
2018-09-13T10:52:17.022Z,5.47
2018-09-13T10:54:48.150Z,5.73
2018-09-13T10:57:24.069Z,5.17
2018-09-13T10:59:55.071Z,6.00
2018-09-13T11:02:26.157Z,5.53
2018-09-13T11:04:57.432Z,5.70
2018-09-13T11:07:28.389Z,4.93
2018-09-13T11:09:59.355Z,5.43
2018-09-13T11:12:34.464Z,6.43
2018-09-13T11:15:09.749Z,5.07
2018-09-13T11:17:41.026Z,4.87
2018-09-13T11:20:12.022Z,4.93
2018-09-13T11:22:42.949Z,4.97
2018-09-13T11:25:13.988Z,5.20
2018-09-13T11:27:45.005Z,4.73
2018-09-13T11:30:15.980Z,4.77
2018-09-13T11:32:47.159Z,4.67
2018-09-13T11:35:18.208Z,5.00
2018-09-13T11:37:49.161Z,4.70
2018-09-13T11:40:20.529Z,3.97
2018-09-13T11:42:51.534Z,4.33
2018-09-13T11:45:22.690Z,4.27
2018-09-13T11:47:53.759Z,4.10
2018-09-13T11:50:24.830Z,4.23
2018-09-13T11:52:55.859Z,4.10
2018-09-13T11:55:26.937Z,4.67
2018-09-13T11:57:58.048Z,4.00
2018-09-13T12:00:29.124Z,4.00
2018-09-13T12:03:01.165Z,4.07
2018-09-13T12:05:36.577Z,3.53
2018-09-13T12:08:09.387Z,3.83
2018-09-13T12:10:40.439Z,3.73
2018-09-13T12:13:11.891Z,3.57
2018-09-13T12:15:43.003Z,4.30
2018-09-13T12:18:27.258Z,3.67
2018-09-13T12:20:58.328Z,3.67
2018-09-13T12:23:29.885Z,3.90
2018-09-13T12:26:09.095Z,4.10
2018-09-13T12:28:40.522Z,4.60
2018-09-13T12:31:11.535Z,3.80
2018-09-13T12:33:42.664Z,3.90
2018-09-13T12:36:29.010Z,5.43
2018-09-13T12:39:00.112Z,3.90
2018-09-13T12:41:31.520Z,3.53
2018-09-13T12:44:02.775Z,4.07
2018-09-13T12:46:34.409Z,3.53
2018-09-13T12:49:05.909Z,3.60
2018-09-13T12:51:37.531Z,3.33
2018-09-13T12:54:08.860Z,3.37
2018-09-13T12:56:40.064Z,3.07
2018-09-13T12:59:17.623Z,3.17
2018-09-13T13:01:48.699Z,3.90
2018-09-13T13:04:20.026Z,3.90
2018-09-13T13:06:51.478Z,3.87
2018-09-13T13:09:22.540Z,3.97
2018-09-13T13:11:53.985Z,3.70
2018-09-13T13:15:54.500Z,3.90
2018-09-13T13:18:25.752Z,3.80
2018-09-13T13:20:56.886Z,3.97
2018-09-13T13:23:29.755Z,3.90
2018-09-13T13:26:01.185Z,3.73
2018-09-13T13:28:32.353Z,3.60
2018-09-13T13:31:03.334Z,3.70
2018-09-13T13:33:34.294Z,4.37
2018-09-13T13:36:05.516Z,3.70
2018-09-13T13:38:36.705Z,3.97
2018-09-13T13:41:07.730Z,3.67
2018-09-13T13:43:39.140Z,3.63
2018-09-13T13:46:10.158Z,4.00
2018-09-13T13:48:41.285Z,3.60
2018-09-13T13:51:12.476Z,4.10
2018-09-13T13:53:43.482Z,3.90
2018-09-13T13:56:14.666Z,4.83
2018-09-13T13:58:45.573Z,4.33
2018-09-13T14:01:16.509Z,4.70
2018-09-13T14:03:47.569Z,5.40
2018-09-13T14:06:18.739Z,4.83
2018-09-13T14:08:50.114Z,4.73
2018-09-13T14:11:21.243Z,4.73
2018-09-13T14:13:52.457Z,4.13
2018-09-13T14:16:23.862Z,4.70
2018-09-13T14:18:54.790Z,4.20
2018-09-13T14:21:25.694Z,4.23
2018-09-13T14:23:56.829Z,4.80
2018-09-13T14:26:28.329Z,4.07
2018-09-13T14:28:59.434Z,4.50
2018-09-13T14:31:30.381Z,4.30
2018-09-13T14:34:01.487Z,4.40
2018-09-13T14:36:32.859Z,4.03
2018-09-13T14:39:05.985Z,3.80
2018-09-13T14:41:37.373Z,3.60
2018-09-13T14:44:08.582Z,4.07
2018-09-13T14:46:39.851Z,4.90
2018-09-13T14:49:10.795Z,5.23
2018-09-13T14:51:41.839Z,4.67
2018-09-13T14:54:12.715Z,4.63
2018-09-13T14:56:43.715Z,4.00
2018-09-13T14:59:14.756Z,3.90
2018-09-13T15:01:46.134Z,4.40
2018-09-13T15:04:17.118Z,4.30
2018-09-13T15:06:48.781Z,4.17
2018-09-13T15:09:19.747Z,4.60
2018-09-13T15:11:50.720Z,4.00
2018-09-13T15:14:22.106Z,4.47
2018-09-13T15:16:53.412Z,4.43
2018-09-13T15:19:24.339Z,4.40
2018-09-13T15:21:55.407Z,4.73
2018-09-13T15:24:26.555Z,4.07
2018-09-13T15:26:58.233Z,4.80
2018-09-13T15:29:29.399Z,4.60
2018-09-13T15:32:00.686Z,4.40
2018-09-13T15:34:31.954Z,4.10
2018-09-13T15:37:03.481Z,3.83
2018-09-13T15:39:34.553Z,4.27
2018-09-13T15:42:05.917Z,4.87
2018-09-13T15:44:37.215Z,4.60
2018-09-13T15:47:08.448Z,4.80
2018-09-13T15:49:39.630Z,4.37
2018-09-13T15:52:11.023Z,4.90
2018-09-13T15:54:42.107Z,6.10
2018-09-13T15:57:13.198Z,4.50
2018-09-13T15:59:44.274Z,4.50
2018-09-13T16:02:15.407Z,6.00
2018-09-13T16:04:46.528Z,4.83
2018-09-13T16:07:18.065Z,4.73
2018-09-13T16:09:49.636Z,5.07
2018-09-13T16:12:21.343Z,4.30
2018-09-13T16:14:52.738Z,4.63
2018-09-13T16:17:24.037Z,4.67
2018-09-13T16:19:55.580Z,4.60
2018-09-13T16:22:26.945Z,5.47
2018-09-13T16:24:58.640Z,4.90
2018-09-13T16:27:30.051Z,4.60
2018-09-13T16:30:01.397Z,4.83
2018-09-13T16:32:32.632Z,4.93
2018-09-13T16:35:03.822Z,5.17
2018-09-13T16:37:40.010Z,4.97
2018-09-13T16:40:16.294Z,4.70
2018-09-13T16:42:55.692Z,4.53
2018-09-13T16:45:30.905Z,5.17
2018-09-13T16:48:03.594Z,8.77
2018-09-13T16:50:34.604Z,8.10
2018-09-13T16:53:05.718Z,6.00
2018-09-13T16:55:36.884Z,5.40
2018-09-13T16:58:08.098Z,5.40
2018-09-13T17:00:39.165Z,5.50
2018-09-13T17:03:10.380Z,5.60
2018-09-13T17:05:41.520Z,6.10
2018-09-13T17:08:12.570Z,5.33
2018-09-13T17:10:43.818Z,6.37
2018-09-13T17:13:15.053Z,5.97
2018-09-13T17:15:46.256Z,5.90
2018-09-13T17:18:17.920Z,5.60
2018-09-13T17:20:49.121Z,6.20
2018-09-13T17:23:20.172Z,5.80
2018-09-13T17:25:51.425Z,5.73
2018-09-13T17:28:22.802Z,6.43
2018-09-13T17:30:54.156Z,6.13
2018-09-13T17:33:25.325Z,5.97
2018-09-13T17:35:56.738Z,5.90
2018-09-13T17:38:27.911Z,5.90
2018-09-13T17:40:59.178Z,6.60
2018-09-13T17:43:30.495Z,6.67
2018-09-13T17:46:01.675Z,6.50
2018-09-13T17:48:32.829Z,6.23
2018-09-13T17:51:04.008Z,6.07
2018-09-13T17:53:35.300Z,6.73
2018-09-13T17:56:06.402Z,6.53
2018-09-13T17:58:37.704Z,7.00
2018-09-13T18:01:08.856Z,7.10
2018-09-13T18:03:40.253Z,5.93
2018-09-13T18:06:11.406Z,6.37
2018-09-13T18:08:42.643Z,6.60
2018-09-13T18:11:13.714Z,6.47
2018-09-13T18:13:44.789Z,6.20
2018-09-13T18:16:15.810Z,6.33
2018-09-13T18:18:46.809Z,5.90
2018-09-13T18:21:18.071Z,6.47
2018-09-13T18:23:49.209Z,6.53
2018-09-13T18:26:20.262Z,6.63
2018-09-13T18:28:51.547Z,6.77
2018-09-13T18:31:22.894Z,7.13
2018-09-13T18:33:53.960Z,6.30
2018-09-13T18:36:25.249Z,6.80
2018-09-13T18:38:56.415Z,7.00
2018-09-13T18:41:27.853Z,6.17
2018-09-13T18:43:58.790Z,6.60
2018-09-13T18:46:29.980Z,6.57
2018-09-13T18:49:01.181Z,6.93
2018-09-13T18:51:32.388Z,6.70
2018-09-13T18:54:03.737Z,6.30
2018-09-13T18:56:34.885Z,6.90
2018-09-13T18:59:06.191Z,7.30
2018-09-13T19:01:37.240Z,7.50
2018-09-13T19:04:08.955Z,7.63
2018-09-13T19:06:40.339Z,7.77
2018-09-13T19:09:11.971Z,7.63
2018-09-13T19:11:43.193Z,7.63
2018-09-13T19:14:14.457Z,7.90
2018-09-13T19:16:45.537Z,7.00
2018-09-13T19:19:16.544Z,7.20
2018-09-13T19:21:47.798Z,7.83
2018-09-13T19:24:18.872Z,7.37
2018-09-13T19:26:49.996Z,8.03
2018-09-13T19:29:21.217Z,7.73
2018-09-13T19:31:52.229Z,7.77
2018-09-13T19:34:23.366Z,8.13
2018-09-13T19:36:54.450Z,7.87
2018-09-13T19:39:25.479Z,8.80
2018-09-13T19:41:56.822Z,8.13
2018-09-13T19:44:27.863Z,8.03
2018-09-13T19:46:58.867Z,8.33
2018-09-13T19:49:31.508Z,9.10
2018-09-13T19:52:03.072Z,8.20
2018-09-13T19:54:34.370Z,7.77
2018-09-13T19:57:05.703Z,8.80
2018-09-13T19:59:36.779Z,8.40
2018-09-13T20:02:08.025Z,8.03
2018-09-13T20:04:39.229Z,7.63
2018-09-13T20:07:10.401Z,8.13
2018-09-13T20:09:41.570Z,8.10
2018-09-13T20:12:12.553Z,8.83
2018-09-13T20:14:44.319Z,7.80
2018-09-13T20:17:15.762Z,8.63
2018-09-13T20:19:47.001Z,7.87
2018-09-13T20:22:17.973Z,8.10
2018-09-13T20:24:49.145Z,7.70
2018-09-13T20:27:20.300Z,8.03
2018-09-13T20:29:51.461Z,8.13
2018-09-13T20:32:22.531Z,8.37
2018-09-13T20:34:53.772Z,8.37
2018-09-13T20:37:24.843Z,8.03
2018-09-13T20:39:55.721Z,8.87
2018-09-13T20:42:26.728Z,8.23
2018-09-13T20:44:57.735Z,8.93
2018-09-13T20:47:28.560Z,8.13
2018-09-13T20:49:59.505Z,8.30
2018-09-13T20:52:30.956Z,7.83
2018-09-13T20:55:01.919Z,7.43
2018-09-13T20:57:32.770Z,8.57
2018-09-13T21:00:03.833Z,8.03
2018-09-13T21:02:34.996Z,8.53
2018-09-13T21:05:07.708Z,8.43
2018-09-13T21:07:38.658Z,9.13
2018-09-13T21:10:09.732Z,8.07
2018-09-13T21:12:40.863Z,8.30
2018-09-13T21:15:11.721Z,8.27
2018-09-13T21:17:43.751Z,7.93
2018-09-13T21:20:14.975Z,8.20
2018-09-13T21:22:46.110Z,8.20
2018-09-13T21:25:17.225Z,7.87
2018-09-13T21:27:48.387Z,7.70
2018-09-13T21:30:19.629Z,7.90
2018-09-13T21:32:50.728Z,7.77
2018-09-13T21:35:21.765Z,8.07
2018-09-13T21:37:52.681Z,8.13
2018-09-13T21:40:23.564Z,7.73
2018-09-13T21:42:54.691Z,8.03
2018-09-13T21:45:25.603Z,7.80
2018-09-13T21:47:56.429Z,7.87
2018-09-13T21:50:27.284Z,8.27
2018-09-13T21:52:58.251Z,8.07
2018-09-13T21:55:29.290Z,8.07
2018-09-13T21:58:00.530Z,7.90
2018-09-13T22:00:31.617Z,7.23
2018-09-13T22:03:02.578Z,8.20
2018-09-13T22:05:33.437Z,7.77
2018-09-13T22:08:04.364Z,8.50
2018-09-13T22:10:35.126Z,7.80
2018-09-13T22:13:06.057Z,8.53
2018-09-13T22:15:36.951Z,8.00
2018-09-13T22:18:07.948Z,8.50
2018-09-13T22:20:38.886Z,7.50
2018-09-13T22:23:09.696Z,8.70
2018-09-13T22:25:40.532Z,8.27
2018-09-13T22:28:11.297Z,8.23
2018-09-13T22:30:42.161Z,8.40
2018-09-13T22:33:13.002Z,8.07
2018-09-13T22:35:43.829Z,7.83
2018-09-13T22:38:14.593Z,7.33
2018-09-13T22:40:45.760Z,7.50
2018-09-13T22:43:16.568Z,8.40
2018-09-13T22:45:47.728Z,8.23
2018-09-13T22:48:18.529Z,7.47
2018-09-13T22:50:49.330Z,7.63
2018-09-13T22:53:20.482Z,7.90
2018-09-13T22:55:51.437Z,8.70
2018-09-13T22:58:22.576Z,7.63
2018-09-13T23:00:57.322Z,8.27
2018-09-13T23:03:28.391Z,8.07
2018-09-13T23:05:59.216Z,8.40
2018-09-13T23:08:30.039Z,8.67
2018-09-13T23:11:00.931Z,8.20
2018-09-13T23:13:31.806Z,8.53
2018-09-13T23:16:02.788Z,9.17
2018-09-13T23:18:33.592Z,8.37
2018-09-13T23:21:04.354Z,8.50
2018-09-13T23:23:35.179Z,7.97
2018-09-13T23:26:06.034Z,8.03
2018-09-13T23:28:37.021Z,8.33
2018-09-13T23:31:07.917Z,8.83
2018-09-13T23:33:38.876Z,8.70
2018-09-13T23:36:09.616Z,8.90
2018-09-13T23:38:40.553Z,8.57
2018-09-13T23:41:11.486Z,9.13
2018-09-13T23:43:42.254Z,9.80
2018-09-13T23:46:13.330Z,10.00
2018-09-13T23:48:44.090Z,9.60
2018-09-13T23:51:14.881Z,8.77
2018-09-13T23:53:45.798Z,9.30
2018-09-13T23:56:16.619Z,8.80
2018-09-13T23:58:47.553Z,8.63
